createdAt,value
2023-04-28T00:00:14.162Z,325.90
2023-04-28T00:05:16.729Z,337.43
2023-04-28T00:10:18.956Z,341.70
2023-04-28T00:15:23.271Z,339.27
2023-04-28T00:20:25.461Z,341.23
2023-04-28T00:25:27.636Z,343.23
2023-04-28T00:30:32.960Z,294.13
2023-04-28T00:35:35.145Z,273.40
2023-04-28T00:40:39.571Z,276.10
2023-04-28T00:45:41.940Z,293.93
2023-04-28T00:50:48.750Z,323.43
2023-04-28T00:55:54.315Z,346.47
2023-04-28T01:01:04.882Z,345.33
2023-04-28T01:06:09.734Z,277.20
2023-04-28T01:11:14.503Z,318.53
2023-04-28T01:16:34.087Z,275.83
2023-04-28T01:21:37.584Z,277.87
2023-04-28T01:26:49.798Z,341.07
2023-04-28T01:31:51.943Z,342.80
2023-04-28T01:36:54.116Z,342.10
2023-04-28T01:41:56.393Z,335.90
2023-04-28T01:47:00.841Z,278.70
2023-04-28T01:52:03.473Z,269.83
2023-04-28T01:57:31.965Z,269.90
2023-04-28T02:02:37.161Z,276.47
2023-04-28T02:07:41.552Z,295.63
2023-04-28T02:12:43.972Z,333.13
2023-04-28T02:17:48.261Z,352.23
2023-04-28T02:22:50.577Z,177.73
2023-04-28T02:27:52.752Z,254.03
2023-04-28T02:32:55.910Z,183.83
2023-04-28T02:37:58.107Z,146.63
2023-04-28T02:43:00.702Z,171.23
2023-04-28T02:48:05.284Z,236.00
2023-04-28T02:53:07.489Z,260.67
2023-04-28T02:58:10.186Z,206.57
2023-04-28T03:03:12.918Z,300.43
2023-04-28T03:08:15.310Z,327.40
2023-04-28T03:13:18.372Z,328.40
2023-04-28T03:18:20.642Z,339.47
2023-04-28T03:23:22.861Z,259.80
2023-04-28T03:28:25.201Z,324.67
2023-04-28T03:33:27.752Z,306.87
2023-04-28T03:38:30.976Z,266.27
2023-04-28T03:43:37.639Z,271.40
2023-04-28T03:49:02.464Z,274.23
2023-04-28T03:54:05.957Z,241.00
2023-04-28T03:59:11.889Z,267.50
2023-04-28T04:04:14.723Z,288.87
2023-04-28T04:09:17.429Z,281.47
2023-04-28T04:14:19.716Z,308.27
2023-04-28T04:19:24.155Z,286.90
2023-04-28T04:24:29.159Z,275.33
2023-04-28T04:29:31.841Z,273.23
2023-04-28T04:34:36.248Z,257.93
2023-04-28T04:39:39.329Z,256.03
2023-04-28T04:44:41.757Z,273.00
2023-04-28T04:49:53.378Z,314.87
2023-04-28T04:54:58.439Z,288.83
2023-04-28T05:00:01.103Z,257.70
2023-04-28T05:05:16.853Z,258.97
2023-04-28T05:10:27.582Z,306.53
2023-04-28T05:15:32.226Z,272.10
2023-04-28T05:21:02.566Z,172.23
2023-04-28T05:26:05.686Z,188.30
2023-04-28T05:31:08.294Z,250.13
2023-04-28T05:36:11.153Z,259.80
2023-04-28T05:41:13.660Z,297.93
2023-04-28T05:46:29.088Z,316.37
2023-04-28T05:51:34.220Z,258.37
2023-04-28T05:56:37.925Z,258.00
2023-04-28T06:01:42.346Z,263.30
2023-04-28T06:06:44.807Z,241.20
2023-04-28T06:11:49.850Z,316.80
2023-04-28T06:16:55.017Z,325.70
2023-04-28T06:21:59.686Z,310.17
2023-04-28T06:27:02.956Z,274.40
2023-04-28T06:32:06.218Z,198.97
2023-04-28T06:37:08.652Z,190.97
2023-04-28T06:42:11.017Z,254.97
2023-04-28T06:47:17.486Z,280.50
2023-04-28T06:52:24.892Z,194.97
2023-04-28T06:57:36.269Z,256.73
2023-04-28T07:02:38.764Z,173.47
2023-04-28T07:07:41.290Z,275.97
2023-04-28T07:12:43.600Z,305.07
2023-04-28T07:17:45.983Z,323.30
2023-04-28T07:22:48.270Z,339.23
2023-04-28T07:27:50.477Z,332.77
2023-04-28T07:32:52.854Z,335.20
2023-04-28T07:37:55.947Z,337.73
2023-04-28T07:42:58.093Z,324.47
2023-04-28T07:48:00.304Z,296.67
2023-04-28T07:53:02.587Z,278.57
2023-04-28T07:58:05.599Z,278.53
2023-04-28T08:03:08.023Z,277.90
2023-04-28T08:08:10.511Z,274.53
2023-04-28T08:13:13.099Z,300.57
2023-04-28T08:18:15.840Z,319.33
2023-04-28T08:23:18.012Z,316.50
2023-04-28T08:28:20.311Z,317.23
2023-04-28T08:33:24.048Z,313.47
2023-04-28T08:38:27.216Z,315.67
2023-04-28T08:43:30.330Z,285.40
2023-04-28T08:48:41.187Z,267.07
2023-04-28T08:59:06.823Z,298.00
2023-04-28T09:04:14.030Z,259.10
2023-04-28T09:09:27.035Z,307.33
2023-04-28T09:14:33.050Z,283.47
2023-04-28T09:19:38.194Z,256.47
2023-04-28T09:24:43.012Z,250.67
2023-04-28T09:29:55.863Z,301.57
2023-04-28T09:34:58.101Z,307.13
2023-04-28T09:40:12.487Z,262.93
2023-04-28T09:45:16.463Z,282.13
2023-04-28T09:50:19.124Z,296.97
2023-04-28T09:55:21.406Z,310.53
2023-04-28T10:00:24.424Z,311.80
2023-04-28T10:05:26.945Z,312.60
2023-04-28T10:10:29.814Z,277.33
2023-04-28T10:15:33.774Z,260.27
2023-04-28T10:20:39.361Z,251.33
2023-04-28T10:25:43.664Z,257.27
2023-04-28T10:31:11.181Z,284.17
2023-04-28T10:36:55.166Z,268.23
2023-04-28T10:41:57.585Z,293.93
2023-04-28T10:47:10.846Z,276.27
2023-04-28T10:52:41.112Z,261.70
2023-04-28T10:57:43.414Z,265.33
2023-04-28T11:02:48.031Z,288.57
2023-04-28T11:08:31.214Z,291.27
2023-04-28T11:13:34.639Z,250.87
2023-04-28T11:19:05.101Z,251.53
2023-04-28T11:24:11.475Z,252.43
2023-04-28T11:29:15.339Z,268.57
2023-04-28T11:34:22.692Z,291.77
2023-04-28T11:39:33.777Z,301.67
2023-04-28T11:44:36.373Z,252.63
2023-04-28T11:49:47.864Z,253.20
2023-04-28T11:55:00.392Z,307.87
2023-04-28T12:00:22.079Z,254.17
2023-04-28T12:05:24.417Z,299.10
2023-04-28T12:10:26.646Z,301.60
2023-04-28T12:15:41.466Z,302.37
2023-04-28T12:20:43.872Z,274.20
2023-04-28T12:25:48.259Z,295.13
2023-04-28T12:30:51.211Z,296.40
2023-04-28T12:35:57.479Z,301.23
2023-04-28T12:41:00.670Z,288.70
2023-04-28T12:46:04.274Z,266.70
2023-04-28T12:51:06.652Z,259.17
2023-04-28T12:56:08.947Z,260.07
2023-04-28T13:01:11.263Z,259.57
2023-04-28T13:06:13.566Z,273.07
2023-04-28T13:11:22.670Z,293.97
2023-04-28T13:16:29.067Z,310.93
2023-04-28T13:21:32.161Z,269.40
2023-04-28T13:26:34.715Z,263.40
2023-04-28T13:31:37.304Z,388.00
2023-04-28T13:36:39.496Z,304.73
2023-04-28T13:41:41.975Z,265.40
2023-04-28T13:46:44.214Z,294.33
2023-04-28T13:51:46.386Z,298.33
2023-04-28T13:56:48.907Z,304.43
2023-04-28T14:01:52.064Z,306.93
2023-04-28T14:06:54.473Z,311.93
2023-04-28T14:11:57.012Z,301.13
2023-04-28T14:16:59.651Z,304.93
2023-04-28T14:22:02.877Z,266.63
2023-04-28T14:27:05.096Z,261.43
2023-04-28T14:32:07.428Z,258.37
2023-04-28T14:37:10.071Z,257.53
2023-04-28T14:42:12.570Z,259.93
2023-04-28T14:47:15.188Z,311.40
2023-04-28T14:52:18.045Z,300.17
2023-04-28T14:57:20.462Z,303.90
2023-04-28T15:02:28.616Z,374.10
2023-04-28T15:07:33.916Z,323.80
2023-04-28T15:12:36.097Z,294.83
2023-04-28T15:17:38.352Z,293.23
2023-04-28T15:22:41.205Z,292.87
2023-04-28T15:27:43.667Z,302.77
2023-04-28T15:32:45.984Z,346.23
2023-04-28T15:37:48.352Z,356.17
2023-04-28T15:42:53.272Z,361.70
2023-04-28T15:47:55.871Z,359.40
2023-04-28T15:52:58.313Z,359.63
2023-04-28T15:58:01.460Z,319.00
2023-04-28T16:03:03.870Z,290.80
2023-04-28T16:08:06.223Z,296.33
2023-04-28T16:13:11.804Z,295.33
2023-04-28T16:18:14.353Z,328.37
2023-04-28T16:23:16.800Z,358.37
2023-04-28T16:28:19.148Z,352.30
2023-04-28T16:33:21.463Z,357.87
2023-04-28T16:38:23.845Z,351.17
2023-04-28T16:43:29.061Z,343.60
2023-04-28T16:48:31.342Z,303.90
2023-04-28T16:53:36.712Z,285.07
2023-04-28T16:58:38.982Z,286.20
2023-04-28T17:03:42.335Z,275.87
2023-04-28T17:08:44.726Z,319.07
2023-04-28T17:13:47.541Z,338.80
2023-04-28T17:18:49.921Z,348.20
2023-04-28T17:23:52.121Z,337.10
2023-04-28T17:28:58.936Z,347.03
2023-04-28T17:34:01.304Z,299.43
2023-04-28T17:39:04.722Z,274.00
2023-04-28T17:44:07.021Z,273.27
2023-04-28T17:49:09.369Z,272.87
2023-04-28T17:54:11.632Z,269.57
2023-04-28T17:59:16.172Z,287.90
2023-04-28T18:04:18.333Z,336.30
2023-04-28T18:09:20.554Z,361.40
2023-04-28T18:14:23.332Z,348.37
2023-04-28T18:19:30.485Z,343.30
2023-04-28T18:24:32.639Z,277.90
2023-04-28T18:29:34.884Z,272.43
2023-04-28T18:34:37.015Z,268.00
2023-04-28T18:39:39.220Z,272.80
2023-04-28T18:44:41.661Z,270.43
2023-04-28T18:49:44.135Z,325.67
2023-04-28T18:54:46.547Z,320.33
2023-04-28T18:59:49.327Z,351.47
2023-04-28T19:04:51.832Z,327.80
2023-04-28T19:09:54.131Z,337.83
2023-04-28T19:14:56.530Z,344.57
2023-04-28T19:19:59.140Z,359.13
2023-04-28T19:25:02.524Z,303.10
2023-04-28T19:30:07.423Z,288.43
2023-04-28T19:35:10.426Z,269.93
2023-04-28T19:40:13.255Z,284.17
2023-04-28T19:45:17.133Z,331.70
2023-04-28T19:50:19.700Z,350.63
2023-04-28T19:55:23.957Z,354.43
2023-04-28T20:00:28.897Z,353.80
2023-04-28T20:05:32.105Z,297.00
2023-04-28T20:10:34.301Z,286.83
2023-04-28T20:15:36.557Z,291.67
2023-04-28T20:20:38.775Z,282.13
2023-04-28T20:25:41.514Z,281.73
2023-04-28T20:30:43.778Z,282.53
2023-04-28T20:35:45.936Z,332.43
2023-04-28T20:40:48.195Z,354.37
2023-04-28T20:45:50.732Z,348.97
2023-04-28T20:50:55.331Z,356.70
2023-04-28T20:55:57.788Z,346.57
2023-04-28T21:01:00.050Z,343.83
2023-04-28T21:06:02.211Z,291.97
2023-04-28T21:11:04.814Z,268.23
2023-04-28T21:16:16.479Z,281.43
2023-04-28T21:21:20.620Z,333.40
2023-04-28T21:26:24.090Z,342.37
2023-04-28T21:31:26.779Z,351.97
2023-04-28T21:36:29.013Z,342.00
2023-04-28T21:41:33.573Z,297.10
2023-04-28T21:46:36.133Z,267.67
2023-04-28T21:51:39.526Z,279.37
2023-04-28T21:56:41.796Z,261.80
2023-04-28T22:01:44.273Z,273.23
2023-04-28T22:06:46.766Z,299.03
2023-04-28T22:11:48.923Z,321.27
2023-04-28T22:16:51.117Z,254.30
2023-04-28T22:21:53.355Z,216.13
2023-04-28T22:26:55.518Z,258.57
2023-04-28T22:31:58.856Z,320.70
2023-04-28T22:37:01.054Z,294.87
2023-04-28T22:42:04.443Z,205.83
2023-04-28T22:47:06.828Z,289.00
2023-04-28T22:52:09.023Z,213.00
2023-04-28T22:57:11.269Z,291.07
2023-04-28T23:02:13.861Z,225.97
2023-04-28T23:07:15.999Z,293.30
2023-04-28T23:12:18.382Z,356.03
2023-04-28T23:17:20.563Z,351.60
2023-04-28T23:22:22.890Z,367.20
2023-04-28T23:27:25.410Z,353.13
2023-04-28T23:32:27.692Z,339.57
2023-04-28T23:37:30.133Z,337.83
2023-04-28T23:42:32.391Z,289.47
2023-04-28T23:47:34.818Z,280.77
2023-04-28T23:52:37.422Z,283.70
2023-04-28T23:57:40.601Z,291.07
